San Jose, CA (95111)

11:25 PM PDT on October 25, 2014 (GMT -0700)
Davis School Vacinity | Change Station
CLOSE
Current Station
Personal Weather Station
Location: San Jose, CA
Elevation: 194 ft
Nearby Weather Stations

Elev 194 ft 37.27 °N, 121.81 °W | Updated 2 seconds ago

Clear
Clear
59.4 °F
Feels Like 59.4 °F
N
0.0
Wind Variable Wind from WSW
Gusts 0.0 mph

Today
High -- | Low -- °F
--% Chance of Precip.
Yesterday
High -- | Low -- °F
Precip. -- in
7:24 AM 6:17 PM
Waxing Crescent, 6% visible
Pressure 30.15 in
Visibility 10.0 miles
Clouds Few 5000 ft
Dew Point 54 °F
Humidity 82%
Rainfall 0.04 in
Snow Depth Not available.
UV 0 out of 12
Pollen .10 out of 12
Ozone Good
PM2.5 Good
Flu Activity Sporadic
METAR KRHV 260447Z VRB06KT 10SM FEW050 19/14 A3015 RMK LAST

More Conditions Fewer Conditions

Pressure 30.15 in
Visibility 10.0 miles
Clouds Few 5000 ft
Dew Point 54 °F
Humidity 82%
Rainfall 0.04 in
Snow Depth Not available.
UV 0 out of 12
Pollen .10 out of 12
Ozone Good
PM2.5 Good
Flu Activity Sporadic
METAR KRHV 260447Z VRB06KT 10SM FEW050 19/14 A3015 RMK LAST

More Conditions Fewer Conditions

10-Day Weather Forecast

Almanac

Astronomy

Oct. 25, 2014 Rise Set
Actual Time 7:24 AM PDT 6:17 PM PDT
Civil Twilight 6:58 AM PDT 6:43 PM PDT
Nautical Twilight 6:27 AM PDT 7:14 PM PDT
Astronomical Twilight 5:57 AM PDT 7:44 PM PDT
Moon 9:07 AM PDT (10/25) 7:46 PM PDT (10/25)
Length of Visible Light 11h 45m
Length of Day
10h 52m
Tomorrow will be 2m 11s shorter.
Waxing Crescent, 6% of the Moon is Illuminated
Oct 26
Waxing Crescent
Oct 30
First Quarter
Nov 6
Full
Nov 14
Last Quarter
Nov 22
New

Community

WunderPhotos

Upload Photos

1,765,114 photos uploaded!

Nearby

Air Quality

  Air Quality AQ Index Pollutant
Yesterday Good
OZONE
Yesterday Good
PM2.5
Current Good
PM2.5
Current Good
OZONE
Saturday Good
OZONE
Sunday Good
OZONE
Monday Good
PM2.5
Tuesday Moderate
PM2.5
Wednesday Moderate
PM2.5

Snow Depth

Station Depth Elevation
Blue Lakes 0 in 8000 ft
Leavitt Lake 2 in 9400 ft
Carson Pass 1 in 8500 ft
Ebbetts Pass 3 in 8700 ft
Sonora Pass 0 in 8800 ft

Earthquake Activity

City Distance Mag. Time & Date
Antioch, California 53 miles 2.7 6:42 AM PDT
2014-10-25
Deer Park, California 92 miles 2.8 6:40 AM PDT
2014-10-25
Coalinga, California 115 miles 2.5 11:01 PM PDT
2014-10-24
Minimum magnitude displayed is 2.5.

Coastal Water Temperatures

Place Temperature
No Stations Reporting

Nearby Weather Stations